This is the latest recevied weather packets stored in our database for station/object TG9SRP-22. If no packets are shown the sender has not sent any weather packets the latest 10 day(s).
| Time | Temp. | Humidity | Pressure | Rain* | Wind** | Luminosity | Snow |
|---|---|---|---|---|---|---|---|
| 1777931351 | 21.11° C | 78% | 1011 hPa | 0 mm | - | - | - |
| 1777930751 | 22.22° C | 74% | 1011 hPa | 0 mm | - | - | - |
| 1777930150 | 23.33° C | 70% | 1012 hPa | 0 mm | - | - | - |
| 1777929549 | 24.44° C | 65% | 1012 hPa | 0 mm | - | - | - |
| 1777928949 | 25.56° C | 59% | 1012 hPa | 0 mm | - | - | - |
| 1777928348 | 25.56° C | 59% | 1012 hPa | 0 mm | - | - | - |
| 1777927748 | 22.22° C | 68% | 1012 hPa | 0 mm | - | - | - |
| 1777927147 | 23.33° C | 63% | 1012 hPa | 0 mm | - | - | - |
| 1777926546 | 24.44° C | 61% | 1012 hPa | 0 mm | - | - | - |
| 1777925946 | 25.56° C | 59% | 1012 hPa | 0 mm | - | - | - |
| 1777925345 | 25.56° C | 59% | 1012 hPa | 0 mm | - | - | - |
| 1777924745 | 22.78° C | 65% | 1012 hPa | 0 mm | - | - | - |
| 1777924144 | 23.33° C | 66% | 1012 hPa | 0 mm | - | - | - |
| 1777923544 | 22.78° C | 66% | 1012 hPa | 0 mm | - | - | - |
| 1777922943 | 23.33° C | 66% | 1013 hPa | 0 mm | - | - | - |
| 1777922342 | 22.78° C | 65% | 1013 hPa | 0 mm | - | - | - |
| 1777921742 | 23.33° C | 66% | 1013 hPa | 0 mm | - | - | - |
| 1777921141 | 22.78° C | 66% | 1013 hPa | 0 mm | - | - | - |
| 1777920540 | 22.78° C | 66% | 1013 hPa | 0 mm | - | - | - |
| 1777919940 | 22.78° C | 57% | 1014 hPa | 0 mm | - | - | - |
| 1777919339 | 23.33° C | 57% | 1015 hPa | 0 mm | - | - | - |
| 1777918739 | 22.22° C | 57% | 1015 hPa | 0 mm | - | - | - |
| 1777918138 | 23.33° C | 57% | 1015 hPa | 0 mm | - | - | - |
| 1777917538 | 22.22° C | 61% | 1015 hPa | 0 mm | - | - | - |
| 1777916937 | 23.33° C | 61% | 1015 hPa | 0 mm | - | - | - |
* Rain latest hour (hover to see other rain measurements)
** Current wind speed in m/s (hover to see current wind gust speed)